createdAt,value
2018-11-05T00:00:28.920Z,6.17
2018-11-05T00:03:31.704Z,6.07
2018-11-05T00:06:34.479Z,7.90
2018-11-05T00:09:37.472Z,6.63
2018-11-05T00:12:40.396Z,10.40
2018-11-05T00:15:43.039Z,7.20
2018-11-05T00:18:45.773Z,6.40
2018-11-05T00:21:48.920Z,6.03
2018-11-05T00:24:51.636Z,7.07
2018-11-05T00:27:54.298Z,6.53
2018-11-05T00:30:56.968Z,6.33
2018-11-05T00:33:59.637Z,5.33
2018-11-05T00:37:02.263Z,6.40
2018-11-05T00:40:07.853Z,7.53
2018-11-05T00:43:10.505Z,5.97
2018-11-05T00:46:13.233Z,8.93
2018-11-05T00:49:15.876Z,5.60
2018-11-05T00:52:19.423Z,6.30
2018-11-05T00:55:22.113Z,5.57
2018-11-05T00:58:24.771Z,3.93
2018-11-05T01:01:27.671Z,5.63
2018-11-05T01:04:30.309Z,7.27
2018-11-05T01:07:32.936Z,7.00
2018-11-05T01:10:40.990Z,7.47
2018-11-05T01:13:58.678Z,14.23
2018-11-05T01:17:04.510Z,14.37
2018-11-05T01:20:08.241Z,6.47
2018-11-05T01:23:16.429Z,4.23
2018-11-05T01:26:32.067Z,5.30
2018-11-05T01:29:34.800Z,7.17
2018-11-05T01:32:37.577Z,8.13
2018-11-05T01:35:40.528Z,8.53
2018-11-05T01:38:44.572Z,5.63
2018-11-05T01:41:47.175Z,5.90
2018-11-05T01:44:49.797Z,7.97
2018-11-05T01:47:53.162Z,10.60
2018-11-05T01:50:55.798Z,4.77
2018-11-05T01:53:58.461Z,6.80
2018-11-05T01:57:01.123Z,7.23
2018-11-05T02:00:05.774Z,6.20
2018-11-05T02:03:09.099Z,5.80
2018-11-05T02:06:12.753Z,10.63
2018-11-05T02:09:15.365Z,14.70
2018-11-05T02:12:17.963Z,7.57
2018-11-05T02:15:20.884Z,7.40
2018-11-05T02:18:23.487Z,10.37
2018-11-05T02:21:26.131Z,9.90
2018-11-05T02:24:28.721Z,8.83
2018-11-05T02:27:31.485Z,10.13
2018-11-05T02:30:34.140Z,12.33
2018-11-05T02:33:36.819Z,6.33
2018-11-05T02:36:40.368Z,9.03
2018-11-05T02:39:43.206Z,7.30
2018-11-05T02:42:46.429Z,8.87
2018-11-05T02:45:49.262Z,9.07
2018-11-05T02:48:51.942Z,9.43
2018-11-05T02:51:54.756Z,6.83
2018-11-05T02:54:57.529Z,8.17
2018-11-05T02:58:00.259Z,10.63
2018-11-05T03:01:03.110Z,14.47
2018-11-05T03:04:05.975Z,8.63
2018-11-05T03:07:08.700Z,8.37
2018-11-05T03:10:12.054Z,9.30
2018-11-05T03:13:14.804Z,10.80
2018-11-05T03:16:17.495Z,10.80
2018-11-05T03:19:20.621Z,10.63
2018-11-05T03:22:23.477Z,11.80
2018-11-05T03:25:26.194Z,12.27
2018-11-05T03:28:29.045Z,11.37
2018-11-05T03:31:31.781Z,8.13
2018-11-05T03:34:34.496Z,11.47
2018-11-05T03:37:38.276Z,17.47
2018-11-05T03:40:40.973Z,9.70
2018-11-05T03:43:44.236Z,11.90
2018-11-05T03:46:47.031Z,9.93
2018-11-05T03:49:49.758Z,16.70
2018-11-05T03:52:52.529Z,14.00
2018-11-05T03:55:55.276Z,10.73
2018-11-05T03:58:58.436Z,10.47
2018-11-05T04:02:01.371Z,11.83
2018-11-05T04:05:04.795Z,13.53
2018-11-05T04:08:07.484Z,16.60
2018-11-05T04:11:10.163Z,10.83
2018-11-05T04:14:12.849Z,14.27
2018-11-05T04:17:15.643Z,15.67
2018-11-05T04:20:18.424Z,12.93
2018-11-05T04:23:21.177Z,10.90
2018-11-05T04:26:23.851Z,12.13
2018-11-05T04:29:26.567Z,10.63
2018-11-05T04:32:29.333Z,12.53
2018-11-05T04:35:32.047Z,13.10
2018-11-05T04:38:35.432Z,14.40
2018-11-05T04:41:39.031Z,13.53
2018-11-05T04:44:41.807Z,11.40
2018-11-05T04:47:44.548Z,13.43
2018-11-05T04:50:47.308Z,14.60
2018-11-05T04:53:50.011Z,9.13
2018-11-05T04:56:52.803Z,8.80
2018-11-05T04:59:55.634Z,15.93
2018-11-05T05:02:58.440Z,14.77
2018-11-05T05:06:01.289Z,12.27
2018-11-05T05:09:08.045Z,10.57
2018-11-05T05:12:10.820Z,15.97
2018-11-05T05:15:13.567Z,10.93
2018-11-05T05:18:16.261Z,14.77
2018-11-05T05:21:19.077Z,13.50
2018-11-05T05:24:21.912Z,12.07
2018-11-05T05:27:24.894Z,11.03
2018-11-05T05:30:27.915Z,15.87
2018-11-05T05:33:30.675Z,9.47
2018-11-05T05:36:33.403Z,11.73
2018-11-05T05:39:37.102Z,13.93
2018-11-05T05:42:40.381Z,13.33
2018-11-05T05:45:43.317Z,12.63
2018-11-05T05:48:46.146Z,17.50
2018-11-05T05:51:48.892Z,10.87
2018-11-05T05:54:51.653Z,11.87
2018-11-05T05:57:54.329Z,11.97
2018-11-05T06:00:57.056Z,12.83
2018-11-05T06:03:59.848Z,9.63
2018-11-05T06:07:02.578Z,11.33
2018-11-05T06:10:05.588Z,9.80
2018-11-05T06:13:08.455Z,9.50
2018-11-05T06:16:12.244Z,10.17
2018-11-05T06:19:15.342Z,10.03
2018-11-05T06:22:18.187Z,7.90
2018-11-05T06:25:21.019Z,9.60
2018-11-05T06:28:23.790Z,10.57
2018-11-05T06:31:27.394Z,10.53
2018-11-05T06:34:30.116Z,10.03
2018-11-05T06:37:32.920Z,14.10
2018-11-05T06:40:35.826Z,11.33
2018-11-05T06:43:38.659Z,12.10
2018-11-05T06:46:42.090Z,9.23
2018-11-05T06:49:44.770Z,14.60
2018-11-05T06:52:47.735Z,10.77
2018-11-05T06:55:50.319Z,8.97
2018-11-05T06:58:53.029Z,10.90
2018-11-05T07:01:55.742Z,10.47
2018-11-05T07:04:58.507Z,9.53
2018-11-05T07:08:02.301Z,12.50
2018-11-05T07:11:05.123Z,10.10
2018-11-05T07:14:08.615Z,11.67
2018-11-05T07:17:11.327Z,11.33
2018-11-05T07:20:15.374Z,7.77
2018-11-05T07:23:18.132Z,12.47
2018-11-05T07:26:21.887Z,13.00
2018-11-05T07:29:24.578Z,18.50
2018-11-05T07:32:27.272Z,17.93
2018-11-05T07:35:29.987Z,11.50
2018-11-05T07:38:32.946Z,16.87
2018-11-05T07:41:35.952Z,14.43
2018-11-05T07:44:38.635Z,15.43
2018-11-05T07:47:44.310Z,15.77
2018-11-05T07:50:48.200Z,10.60
2018-11-05T07:53:59.165Z,9.07
2018-11-05T07:57:01.830Z,10.23
2018-11-05T08:00:12.123Z,13.43
2018-11-05T08:03:15.407Z,13.17
2018-11-05T08:06:18.909Z,13.67
2018-11-05T08:09:21.601Z,11.03
2018-11-05T08:12:24.268Z,10.17
2018-11-05T08:15:27.544Z,12.53
2018-11-05T08:18:30.321Z,9.80
2018-11-05T08:21:33.002Z,9.27
2018-11-05T08:24:35.731Z,10.90
2018-11-05T08:27:39.412Z,8.70
2018-11-05T08:30:42.053Z,9.77
2018-11-05T08:33:44.678Z,9.90
2018-11-05T08:36:47.302Z,7.97
2018-11-05T08:39:49.957Z,8.73
2018-11-05T08:42:53.559Z,6.90
2018-11-05T08:45:56.130Z,9.50
2018-11-05T08:48:58.680Z,10.73
2018-11-05T08:52:01.469Z,10.63
2018-11-05T08:55:04.895Z,8.10
2018-11-05T08:58:07.494Z,7.80
2018-11-05T09:01:15.972Z,12.60
2018-11-05T09:04:18.568Z,12.17
2018-11-05T09:07:21.509Z,8.63
2018-11-05T09:10:24.294Z,5.97
2018-11-05T09:13:26.755Z,8.23
2018-11-05T09:16:29.351Z,9.40
2018-11-05T09:19:32.012Z,9.40
2018-11-05T09:22:34.635Z,21.33
2018-11-05T09:25:37.246Z,14.17
2018-11-05T09:28:39.864Z,8.20
2018-11-05T09:31:43.004Z,7.97
2018-11-05T09:34:45.627Z,5.97
2018-11-05T09:37:48.187Z,9.13
2018-11-05T09:40:50.802Z,9.50
2018-11-05T09:43:53.431Z,13.30
2018-11-05T09:46:56.084Z,6.60
2018-11-05T09:49:58.720Z,9.53
2018-11-05T09:53:01.405Z,12.43
2018-11-05T09:56:04.144Z,8.83
2018-11-05T09:59:06.841Z,9.17
2018-11-05T10:02:09.451Z,7.97
2018-11-05T10:05:13.340Z,6.07
2018-11-05T10:08:16.415Z,6.03
2018-11-05T10:11:19.397Z,7.77
2018-11-05T10:14:22.111Z,4.93
2018-11-05T10:17:25.323Z,6.97
2018-11-05T10:20:28.481Z,6.47
2018-11-05T10:23:31.124Z,12.60
2018-11-05T10:26:33.754Z,4.53
2018-11-05T10:29:37.118Z,6.23
2018-11-05T10:32:40.016Z,5.63
2018-11-05T10:35:48.343Z,10.87
2018-11-05T10:38:50.898Z,6.70
2018-11-05T10:41:53.524Z,10.63
2018-11-05T10:44:56.118Z,7.90
2018-11-05T10:47:58.959Z,6.40
2018-11-05T10:51:01.862Z,6.83
2018-11-05T10:54:04.698Z,7.80
2018-11-05T10:57:07.393Z,9.70
2018-11-05T11:01:20.880Z,8.50
2018-11-05T11:04:29.234Z,7.07
2018-11-05T11:07:31.740Z,8.53
2018-11-05T11:10:34.396Z,9.37
2018-11-05T11:13:37.041Z,7.40
2018-11-05T11:16:39.604Z,9.07
2018-11-05T11:19:42.494Z,8.70
2018-11-05T11:22:45.216Z,8.17
2018-11-05T11:25:47.944Z,5.00
2018-11-05T11:28:50.676Z,8.00
2018-11-05T11:31:53.425Z,6.47
2018-11-05T11:34:56.117Z,6.63
2018-11-05T11:37:59.305Z,5.10
2018-11-05T11:41:03.035Z,5.83
2018-11-05T11:44:05.818Z,6.50
2018-11-05T11:47:09.152Z,5.73
2018-11-05T11:50:13.123Z,6.67
2018-11-05T11:53:16.790Z,5.20
2018-11-05T11:56:19.410Z,6.03
2018-11-05T11:59:22.836Z,3.93
2018-11-05T12:02:25.430Z,9.50
2018-11-05T12:05:28.115Z,8.30
2018-11-05T12:08:30.691Z,6.33
2018-11-05T12:11:33.319Z,5.70
2018-11-05T12:14:36.032Z,7.97
2018-11-05T12:17:39.280Z,6.93
2018-11-05T12:20:41.899Z,9.27
2018-11-05T12:23:45.564Z,6.00
2018-11-05T12:26:48.129Z,4.77
2018-11-05T12:29:50.867Z,4.03
2018-11-05T12:32:54.172Z,4.67
2018-11-05T12:35:56.750Z,5.30
2018-11-05T12:38:59.368Z,5.93
2018-11-05T12:42:01.990Z,8.47
2018-11-05T12:45:06.115Z,4.87
2018-11-05T12:48:08.679Z,5.30
2018-11-05T12:51:11.264Z,9.60
2018-11-05T12:54:14.145Z,6.23
2018-11-05T12:57:16.709Z,6.83
2018-11-05T13:00:20.994Z,8.70
2018-11-05T13:03:24.197Z,5.80
2018-11-05T13:06:26.877Z,6.77
2018-11-05T13:09:29.463Z,6.87
2018-11-05T13:12:32.310Z,4.90
2018-11-05T13:15:34.904Z,5.93
2018-11-05T13:18:37.573Z,7.63
2018-11-05T13:21:40.187Z,6.63
2018-11-05T13:24:42.799Z,7.57
2018-11-05T13:27:46.870Z,7.33
2018-11-05T13:30:49.391Z,7.07
2018-11-05T13:33:52.019Z,8.13
2018-11-05T13:36:54.742Z,8.60
2018-11-05T13:39:57.268Z,6.40
2018-11-05T13:42:59.886Z,6.57
2018-11-05T13:46:03.163Z,13.00
2018-11-05T13:49:06.404Z,8.93
2018-11-05T13:52:08.712Z,10.07
2018-11-05T13:55:13.562Z,5.17
2018-11-05T13:58:16.304Z,5.43
2018-11-05T14:01:19.108Z,6.50
2018-11-05T14:04:21.906Z,7.00
2018-11-05T14:07:24.644Z,5.40
2018-11-05T14:10:27.420Z,6.13
2018-11-05T14:13:30.121Z,5.60
2018-11-05T14:16:32.944Z,5.03
2018-11-05T14:19:36.205Z,5.30
2018-11-05T14:22:38.944Z,5.37
2018-11-05T14:25:42.926Z,8.60
2018-11-05T14:28:46.741Z,4.60
2018-11-05T14:31:49.275Z,5.87
2018-11-05T14:34:51.965Z,6.43
2018-11-05T14:37:54.676Z,6.17
2018-11-05T14:40:57.365Z,4.70
2018-11-05T14:44:00.153Z,7.37
2018-11-05T14:47:02.888Z,8.20
2018-11-05T14:50:08.431Z,5.27
2018-11-05T14:53:11.105Z,7.03
2018-11-05T14:56:13.853Z,6.33
2018-11-05T14:59:16.617Z,7.20
2018-11-05T15:02:25.034Z,9.33
2018-11-05T15:05:27.880Z,9.03
2018-11-05T15:08:31.259Z,7.17
2018-11-05T15:11:33.929Z,8.47
2018-11-05T15:14:36.763Z,7.53
2018-11-05T15:17:39.803Z,7.70
2018-11-05T15:20:43.617Z,9.43
2018-11-05T15:23:46.416Z,7.70
2018-11-05T15:26:49.225Z,10.50
2018-11-05T15:29:52.007Z,12.37
2018-11-05T15:32:54.742Z,14.23
2018-11-05T15:35:57.460Z,14.90
2018-11-05T15:39:00.144Z,13.60
2018-11-05T15:42:03.571Z,10.90
2018-11-05T15:45:07.610Z,12.83
2018-11-05T15:48:10.259Z,10.83
2018-11-05T15:51:13.093Z,15.40
2018-11-05T15:54:15.546Z,12.17
2018-11-05T15:57:18.215Z,13.23
2018-11-05T16:00:23.055Z,12.50
2018-11-05T16:03:25.630Z,11.83
2018-11-05T16:09:42.463Z,12.10
2018-11-05T16:12:45.863Z,15.70
2018-11-05T16:15:48.669Z,10.10
2018-11-05T16:18:51.938Z,12.17
2018-11-05T16:21:54.993Z,15.27
2018-11-05T16:24:57.622Z,13.47
2018-11-05T16:28:00.182Z,11.23
2018-11-05T16:31:03.546Z,11.80
2018-11-05T16:34:06.121Z,11.67
2018-11-05T16:37:08.806Z,15.13
2018-11-05T16:40:13.955Z,16.33
2018-11-05T16:43:16.474Z,18.00
2018-11-05T16:46:19.056Z,14.60
2018-11-05T16:49:21.747Z,10.17
2018-11-05T16:52:24.333Z,11.67
2018-11-05T16:55:26.947Z,12.17
2018-11-05T16:58:29.556Z,13.20
2018-11-05T17:01:32.469Z,15.00
2018-11-05T17:04:34.746Z,18.50
2018-11-05T17:07:37.427Z,12.13
2018-11-05T17:10:40.072Z,10.47
2018-11-05T17:13:42.799Z,14.30
2018-11-05T17:16:45.504Z,11.30
2018-11-05T17:19:48.155Z,17.50
2018-11-05T17:22:50.806Z,21.80
2018-11-05T17:25:53.426Z,16.87
2018-11-05T17:28:56.604Z,25.57
2018-11-05T17:32:00.057Z,27.47
2018-11-05T17:35:03.456Z,29.83
2018-11-05T17:38:06.276Z,28.30
2018-11-05T17:41:08.915Z,15.03
2018-11-05T17:44:12.377Z,16.67
2018-11-05T17:47:14.980Z,12.33
2018-11-05T17:50:20.509Z,11.03
2018-11-05T17:53:23.172Z,10.73
2018-11-05T17:56:26.487Z,10.43
2018-11-05T17:59:29.216Z,13.27
2018-11-05T18:02:31.888Z,10.60
2018-11-05T18:05:34.477Z,8.87
2018-11-05T18:08:37.196Z,7.63
2018-11-05T18:11:39.888Z,10.47
2018-11-05T18:14:42.685Z,8.83
2018-11-05T18:17:47.787Z,9.93
2018-11-05T18:20:51.082Z,8.80
2018-11-05T18:23:53.845Z,7.80
2018-11-05T18:26:56.759Z,8.30
2018-11-05T18:29:59.626Z,8.80
2018-11-05T19:27:04.745Z,9.63
2018-11-05T19:30:17.509Z,10.80
2018-11-05T19:33:20.604Z,9.27
2018-11-05T19:36:23.265Z,10.33
2018-11-05T19:39:26.021Z,10.33
2018-11-05T19:42:29.219Z,15.00
2018-11-05T19:45:31.633Z,11.30
2018-11-05T19:48:37.388Z,11.60
2018-11-05T19:51:43.296Z,12.10
2018-11-05T19:54:58.871Z,12.50
2018-11-05T19:58:01.727Z,11.97
2018-11-05T20:01:05.121Z,10.27
2018-11-05T20:04:19.870Z,10.90
2018-11-05T20:07:25.998Z,11.87
2018-11-05T20:10:38.530Z,13.33
2018-11-05T20:13:41.357Z,12.17
2018-11-05T20:16:44.355Z,13.90
2018-11-05T20:23:27.378Z,12.27
2018-11-05T20:26:30.387Z,14.27
2018-11-05T20:29:33.027Z,14.27
2018-11-05T20:32:37.355Z,13.37
2018-11-05T20:35:41.939Z,13.63
2018-11-05T20:38:48.921Z,12.07
2018-11-05T20:42:07.203Z,15.23
2018-11-05T20:45:10.433Z,14.30
2018-11-05T20:48:13.384Z,14.43
2018-11-05T20:51:16.510Z,14.53
2018-11-05T20:54:25.417Z,17.13
2018-11-05T20:57:39.705Z,22.70
2018-11-05T21:00:42.969Z,19.07
2018-11-05T21:07:24.437Z,16.70
2018-11-05T21:10:27.489Z,16.00
2018-11-05T21:13:30.195Z,17.53
2018-11-05T21:16:36.024Z,18.40
2018-11-05T21:19:40.627Z,19.87
2018-11-05T21:22:44.435Z,18.07
2018-11-05T21:25:47.291Z,20.43
2018-11-05T21:28:51.315Z,24.37
2018-11-05T21:31:54.397Z,25.73
2018-11-05T21:34:57.476Z,18.57
2018-11-05T21:38:00.562Z,22.73
2018-11-05T21:41:03.547Z,20.27
2018-11-05T21:44:08.484Z,27.30
2018-11-05T21:47:11.901Z,26.17
2018-11-05T21:50:17.880Z,26.07
2018-11-05T21:53:21.189Z,24.47
2018-11-05T21:56:27.944Z,21.87
2018-11-05T21:59:42.570Z,23.80
2018-11-05T22:02:50.989Z,26.07
2018-11-05T22:05:54.299Z,25.73
2018-11-05T22:09:00.113Z,24.67
2018-11-05T22:12:04.331Z,26.30
2018-11-05T22:15:07.448Z,26.87
2018-11-05T22:18:10.451Z,25.70
2018-11-05T22:21:13.635Z,25.07
2018-11-05T22:24:17.081Z,25.43
2018-11-05T22:27:22.133Z,30.67
2018-11-05T22:30:33.491Z,22.47
2018-11-05T22:33:43.089Z,25.03
2018-11-05T22:36:47.017Z,24.37
2018-11-05T22:39:51.693Z,27.50
2018-11-05T22:42:55.101Z,25.53
2018-11-05T22:45:58.594Z,27.00
2018-11-05T22:49:05.810Z,27.10
2018-11-05T22:52:24.931Z,29.80
2018-11-05T22:58:59.044Z,27.97
2018-11-05T23:02:09.514Z,28.30
2018-11-05T23:05:20.419Z,27.13
2018-11-05T23:08:24.956Z,31.47
2018-11-05T23:11:43.429Z,26.23
2018-11-05T23:14:48.005Z,29.40
2018-11-05T23:21:13.492Z,27.20
2018-11-05T23:27:38.996Z,28.57
2018-11-05T23:30:42.550Z,28.73
2018-11-05T23:33:47.684Z,27.30
2018-11-05T23:36:50.955Z,28.93
2018-11-05T23:40:01.499Z,31.37
2018-11-05T23:43:14.762Z,28.67
2018-11-05T23:46:20.566Z,29.13
2018-11-05T23:49:34.131Z,26.33
2018-11-05T23:52:46.498Z,31.13
2018-11-05T23:56:12.912Z,29.50
2018-11-05T23:59:19.934Z,36.03
